createdAt,value
2016-10-22T00:00:00.214Z,7.9
2016-10-22T00:00:20.794Z,7.8
2016-10-22T00:00:41.375Z,7.9
2016-10-22T00:01:01.956Z,7.9
2016-10-22T00:01:22.539Z,7.9
2016-10-22T00:01:43.121Z,7.8
2016-10-22T00:02:03.675Z,7.9
2016-10-22T00:02:24.283Z,7.9
2016-10-22T00:02:44.889Z,7.9
2016-10-22T00:03:05.464Z,7.9
2016-10-22T00:03:26.066Z,7.9
2016-10-22T00:03:46.643Z,7.8
2016-10-22T00:04:07.219Z,7.9
2016-10-22T00:04:27.826Z,7.9
2016-10-22T00:04:48.396Z,7.9
2016-10-22T00:05:08.975Z,7.8
2016-10-22T00:05:29.541Z,7.9
2016-10-22T00:05:50.114Z,7.8
2016-10-22T00:06:10.690Z,7.9
2016-10-22T00:06:31.336Z,7.9
2016-10-22T00:06:51.906Z,7.9
2016-10-22T00:07:12.486Z,7.9
2016-10-22T00:07:33.056Z,7.8
2016-10-22T00:07:53.612Z,7.8
2016-10-22T00:08:14.188Z,7.9
2016-10-22T00:08:34.746Z,7.9
2016-10-22T00:08:55.356Z,7.9
2016-10-22T00:09:15.937Z,7.9
2016-10-22T00:09:36.553Z,7.9
2016-10-22T00:09:57.119Z,7.8
2016-10-22T00:10:17.688Z,7.9
2016-10-22T00:10:38.258Z,7.9
2016-10-22T00:10:58.845Z,7.9
2016-10-22T00:11:19.404Z,7.9
2016-10-22T00:11:40.019Z,7.9
2016-10-22T00:12:00.603Z,7.9
2016-10-22T00:12:21.206Z,7.9
2016-10-22T00:12:41.840Z,7.9
2016-10-22T00:13:02.407Z,7.9
2016-10-22T00:13:23.000Z,7.9
2016-10-22T00:13:43.570Z,7.9
2016-10-22T00:14:04.140Z,7.8
2016-10-22T00:14:24.714Z,7.8
2016-10-22T00:14:45.331Z,7.9
2016-10-22T00:15:05.912Z,7.7
2016-10-22T00:15:26.497Z,7.9
2016-10-22T00:15:47.154Z,7.8
2016-10-22T00:16:07.728Z,7.9
2016-10-22T00:16:28.307Z,7.8
2016-10-22T00:16:48.883Z,7.8
2016-10-22T00:17:09.475Z,7.9
2016-10-22T00:17:30.047Z,7.8
2016-10-22T00:17:50.661Z,7.9
2016-10-22T00:18:11.226Z,7.9
2016-10-22T00:18:31.887Z,7.9
2016-10-22T00:18:52.465Z,7.9
2016-10-22T00:19:13.082Z,7.8
2016-10-22T00:19:33.663Z,7.9
2016-10-22T00:19:54.236Z,7.9
2016-10-22T00:20:14.798Z,7.9
2016-10-22T00:20:35.375Z,7.8
2016-10-22T00:20:55.941Z,7.8
2016-10-22T00:21:16.525Z,7.9
2016-10-22T00:21:37.143Z,7.9
2016-10-22T00:21:57.700Z,7.8
2016-10-22T00:22:18.265Z,7.8
2016-10-22T00:22:38.850Z,7.8
2016-10-22T00:22:59.419Z,7.9
2016-10-22T00:23:19.996Z,7.7
2016-10-22T00:23:40.581Z,7.8
2016-10-22T00:24:01.163Z,7.8
2016-10-22T00:24:21.734Z,7.9
2016-10-22T00:24:42.308Z,7.8
2016-10-22T00:25:02.864Z,7.8
2016-10-22T00:25:23.440Z,7.8
2016-10-22T00:25:44.008Z,7.8
2016-10-22T00:26:04.599Z,7.7
2016-10-22T00:26:25.227Z,7.7
2016-10-22T00:26:45.803Z,7.7
2016-10-22T00:27:06.377Z,7.7
2016-10-22T00:27:26.993Z,7.7
2016-10-22T00:27:47.552Z,7.8
2016-10-22T00:28:08.132Z,7.7
2016-10-22T00:28:28.694Z,7.7
2016-10-22T00:28:49.260Z,7.7
2016-10-22T00:29:09.831Z,7.6
2016-10-22T00:29:30.423Z,7.6
2016-10-22T00:29:51.033Z,7.6
2016-10-22T00:30:11.601Z,7.6
2016-10-22T00:30:32.165Z,7.6
2016-10-22T00:30:52.781Z,7.6
2016-10-22T00:31:13.338Z,7.6
2016-10-22T00:31:33.909Z,7.6
2016-10-22T00:31:54.481Z,7.6
2016-10-22T00:32:15.062Z,7.6
2016-10-22T00:32:35.664Z,7.6
2016-10-22T00:32:56.228Z,7.6
2016-10-22T00:33:16.798Z,7.6
2016-10-22T00:33:37.443Z,7.6
2016-10-22T00:33:58.008Z,7.6
2016-10-22T00:34:18.611Z,7.6
2016-10-22T00:34:39.183Z,7.6
2016-10-22T00:34:59.763Z,7.6
2016-10-22T00:35:20.327Z,7.6
2016-10-22T00:35:40.907Z,7.6
2016-10-22T00:36:01.527Z,7.6
2016-10-22T00:36:22.091Z,7.5
2016-10-22T00:36:42.691Z,7.5
2016-10-22T00:37:03.257Z,7.6
2016-10-22T00:37:23.838Z,7.6
2016-10-22T00:37:44.435Z,7.5
2016-10-22T00:38:05.058Z,7.5
2016-10-22T00:38:25.640Z,7.5
2016-10-22T00:38:46.216Z,7.6
2016-10-22T00:39:06.773Z,7.5
2016-10-22T00:39:27.377Z,7.5
2016-10-22T00:39:47.991Z,7.5
2016-10-22T00:40:08.555Z,7.5
2016-10-22T00:40:29.155Z,7.4
2016-10-22T00:40:49.784Z,7.3
2016-10-22T00:41:10.348Z,7.5
2016-10-22T00:41:30.968Z,7.5
2016-10-22T00:41:51.604Z,7.4
2016-10-22T00:42:12.175Z,7.5
2016-10-22T00:42:32.747Z,7.4
2016-10-22T00:42:53.316Z,7.3
2016-10-22T00:43:13.897Z,7.3
2016-10-22T00:43:34.470Z,7.3
2016-10-22T00:43:55.028Z,7.3
2016-10-22T00:44:15.641Z,7.3
2016-10-22T00:44:36.281Z,7.4
2016-10-22T00:44:56.846Z,7.3
2016-10-22T00:45:17.426Z,7.3
2016-10-22T00:45:38.002Z,7.4
2016-10-22T00:45:58.591Z,7.3
2016-10-22T00:46:19.173Z,7.3
2016-10-22T00:46:39.737Z,7.3
2016-10-22T00:47:00.296Z,7.3
2016-10-22T00:47:20.869Z,7.3
2016-10-22T00:47:41.456Z,7.3
2016-10-22T00:48:02.021Z,7.2
2016-10-22T00:48:22.591Z,7.4
2016-10-22T00:48:43.180Z,7.4
2016-10-22T00:49:03.749Z,7.3
2016-10-22T00:49:24.366Z,7.2
2016-10-22T00:49:44.939Z,7.3
2016-10-22T00:50:05.516Z,7.4
2016-10-22T00:50:26.085Z,7.2
2016-10-22T00:50:46.666Z,7.3
2016-10-22T00:51:07.227Z,7.2
2016-10-22T00:51:27.795Z,7.3
2016-10-22T00:51:48.439Z,7.2
2016-10-22T00:52:09.011Z,7.2
2016-10-22T00:52:29.607Z,7.3
2016-10-22T00:52:50.162Z,7.3
2016-10-22T00:53:10.725Z,7.2
2016-10-22T00:53:31.283Z,7.2
2016-10-22T00:53:51.894Z,7.2
2016-10-22T00:54:12.470Z,7.3
2016-10-22T00:54:33.076Z,7.2
2016-10-22T00:54:53.650Z,7.3
2016-10-22T00:55:14.214Z,7.3
2016-10-22T00:55:34.767Z,7.2
2016-10-22T00:55:55.348Z,7.2
2016-10-22T00:56:15.948Z,7.2
2016-10-22T00:56:36.514Z,7.3
2016-10-22T00:56:57.099Z,7.3
2016-10-22T00:57:17.695Z,7.2
2016-10-22T00:57:38.257Z,7.3
2016-10-22T00:57:58.830Z,7.2
2016-10-22T00:58:19.405Z,7.3
2016-10-22T00:58:39.990Z,7.2
2016-10-22T00:59:00.545Z,7.2
2016-10-22T00:59:21.144Z,7.2
2016-10-22T00:59:41.714Z,7.3
2016-10-22T01:00:02.298Z,7.2
2016-10-22T01:00:22.878Z,7.3
2016-10-22T01:00:43.483Z,7.2
2016-10-22T01:01:04.051Z,7.3
2016-10-22T01:01:24.617Z,7.2
2016-10-22T01:01:45.195Z,7.2
2016-10-22T01:02:05.768Z,7.2
2016-10-22T01:02:26.341Z,7.3
2016-10-22T01:02:46.931Z,7.2
2016-10-22T01:03:07.523Z,7.3
2016-10-22T01:03:28.086Z,7.2
2016-10-22T01:03:48.685Z,7.3
2016-10-22T01:04:09.254Z,7.2
2016-10-22T01:04:29.828Z,7.2
2016-10-22T01:04:50.468Z,7.3
2016-10-22T01:05:11.046Z,7.1
2016-10-22T01:05:31.614Z,7.2
2016-10-22T01:05:52.189Z,7.3
2016-10-22T01:06:12.787Z,7.2
2016-10-22T01:06:33.382Z,7.3
2016-10-22T01:06:53.948Z,7.3
2016-10-22T01:07:14.543Z,7.3
2016-10-22T01:07:35.092Z,7.3
2016-10-22T01:07:55.676Z,7.3
2016-10-22T01:08:16.249Z,7.3
2016-10-22T01:08:36.836Z,7.3
2016-10-22T01:08:57.437Z,7.3
2016-10-22T01:09:18.016Z,7.3
2016-10-22T01:09:38.580Z,7.3
2016-10-22T01:09:59.163Z,7.3
2016-10-22T01:10:19.736Z,7.3
2016-10-22T01:10:40.346Z,7.2
2016-10-22T01:11:00.916Z,7.3
2016-10-22T01:11:21.486Z,7.3
2016-10-22T01:11:42.065Z,7.2
2016-10-22T01:12:02.631Z,7.3
2016-10-22T01:12:23.228Z,7.3
2016-10-22T01:12:43.799Z,7.3
2016-10-22T01:13:04.362Z,7.2
2016-10-22T01:13:24.935Z,7.3
2016-10-22T01:13:45.506Z,7.3
2016-10-22T01:14:06.076Z,7.3
2016-10-22T01:14:26.679Z,7.2
2016-10-22T01:14:47.240Z,7.2
2016-10-22T01:15:07.809Z,7.2
2016-10-22T01:15:28.375Z,7.3
2016-10-22T01:15:48.950Z,7.3
2016-10-22T01:16:09.556Z,7.2
2016-10-22T01:16:30.167Z,7.2
2016-10-22T01:16:50.769Z,7.3
2016-10-22T01:17:11.368Z,7.3
2016-10-22T01:17:31.946Z,7.2
2016-10-22T01:17:52.550Z,7.2
2016-10-22T01:18:13.125Z,7.3
2016-10-22T01:18:33.734Z,7.2
2016-10-22T01:18:54.337Z,7.2
2016-10-22T01:19:14.919Z,7.3
2016-10-22T01:19:35.490Z,7.4
2016-10-22T01:19:56.087Z,7.3
2016-10-22T01:20:16.677Z,7.4
2016-10-22T01:20:37.248Z,7.4
2016-10-22T01:20:57.811Z,7.3
2016-10-22T01:21:18.394Z,7.4
2016-10-22T01:21:39.010Z,7.4
2016-10-22T01:21:59.582Z,7.2
2016-10-22T01:22:20.153Z,7.4
2016-10-22T01:22:40.737Z,7.3
2016-10-22T01:23:01.318Z,7.4
2016-10-22T01:23:21.891Z,7.3
2016-10-22T01:23:42.460Z,7.4
2016-10-22T01:24:03.024Z,7.3
2016-10-22T01:24:23.603Z,7.4
2016-10-22T01:24:44.170Z,7.3
2016-10-22T01:25:04.762Z,7.3
2016-10-22T01:25:25.348Z,7.3
2016-10-22T01:25:45.910Z,7.4
2016-10-22T01:26:06.500Z,7.3
2016-10-22T01:26:27.054Z,7.3
2016-10-22T01:26:47.616Z,7.4
2016-10-22T01:27:08.194Z,7.3
2016-10-22T01:27:28.762Z,7.3
2016-10-22T01:27:49.339Z,7.4
2016-10-22T01:28:09.913Z,7.4
2016-10-22T01:28:30.481Z,7.4
2016-10-22T01:28:51.041Z,7.3
2016-10-22T01:29:11.617Z,7.3
2016-10-22T01:29:32.196Z,7.3
2016-10-22T01:29:52.788Z,7.4
2016-10-22T01:30:13.355Z,7.3
2016-10-22T01:30:33.918Z,7.4
2016-10-22T01:30:54.488Z,7.4
2016-10-22T01:31:15.066Z,7.3
2016-10-22T01:31:35.671Z,7.4
2016-10-22T01:31:56.238Z,7.3
2016-10-22T01:32:16.817Z,7.4
2016-10-22T01:32:37.420Z,7.4
2016-10-22T01:32:58.033Z,7.5
2016-10-22T01:33:18.642Z,7.5
2016-10-22T01:33:39.227Z,7.3
2016-10-22T01:33:59.822Z,7.4
2016-10-22T01:34:20.391Z,7.5
2016-10-22T01:34:40.971Z,7.5
2016-10-22T01:35:01.528Z,7.5
2016-10-22T01:35:22.172Z,7.3
2016-10-22T01:35:42.734Z,7.5
2016-10-22T01:36:03.344Z,7.5
2016-10-22T01:36:23.940Z,7.5
2016-10-22T01:36:44.538Z,7.5
2016-10-22T01:37:05.109Z,7.5
2016-10-22T01:37:25.680Z,7.4
2016-10-22T01:37:46.248Z,7.5
2016-10-22T01:38:06.829Z,7.5
2016-10-22T01:38:27.398Z,7.5
2016-10-22T01:38:48.018Z,7.5
2016-10-22T01:39:08.577Z,7.4
2016-10-22T01:39:29.146Z,7.5
2016-10-22T01:39:49.738Z,7.4
2016-10-22T01:40:10.301Z,7.5
2016-10-22T01:40:30.873Z,7.4
2016-10-22T01:40:51.445Z,7.5
2016-10-22T01:41:12.010Z,7.4
2016-10-22T01:41:32.633Z,7.5
2016-10-22T01:41:53.230Z,7.5
2016-10-22T01:42:13.800Z,7.4
2016-10-22T01:42:34.409Z,7.5
2016-10-22T01:42:55.054Z,7.5
2016-10-22T01:43:15.625Z,7.5
2016-10-22T01:43:36.199Z,7.4
2016-10-22T01:43:56.797Z,7.4
2016-10-22T01:44:17.404Z,7.5
2016-10-22T01:44:37.992Z,7.5
2016-10-22T01:44:58.576Z,7.6
2016-10-22T01:45:19.153Z,7.5
2016-10-22T01:45:39.747Z,7.5
2016-10-22T01:46:00.320Z,7.5
2016-10-22T01:46:20.896Z,7.5
2016-10-22T01:46:41.477Z,7.4
2016-10-22T01:47:02.074Z,7.4
2016-10-22T01:47:22.648Z,7.5
2016-10-22T01:47:43.211Z,7.5
2016-10-22T01:48:03.773Z,7.5
2016-10-22T01:48:24.335Z,7.4
2016-10-22T01:48:44.916Z,7.4
2016-10-22T01:49:05.486Z,7.4
2016-10-22T01:49:26.098Z,7.5
2016-10-22T01:49:46.659Z,7.4
2016-10-22T01:50:07.268Z,7.4
2016-10-22T01:50:27.855Z,7.4
2016-10-22T01:50:48.421Z,7.4
2016-10-22T01:51:08.982Z,7.4
2016-10-22T01:51:29.541Z,7.4
2016-10-22T01:51:50.197Z,7.3
2016-10-22T01:52:10.778Z,7.3
2016-10-22T01:52:31.346Z,7.3
2016-10-22T01:52:51.911Z,7.4
2016-10-22T01:53:12.480Z,7.4
2016-10-22T01:53:33.053Z,7.4
2016-10-22T01:53:53.634Z,7.4
2016-10-22T01:54:14.183Z,7.4
2016-10-22T01:54:34.765Z,7.4
2016-10-22T01:54:55.334Z,7.3
2016-10-22T01:55:15.917Z,7.4
2016-10-22T01:55:36.478Z,7.4
2016-10-22T01:55:57.059Z,7.3
2016-10-22T01:56:17.649Z,7.4
2016-10-22T01:56:38.245Z,7.3
2016-10-22T01:56:58.912Z,7.4
2016-10-22T01:57:19.485Z,7.4
2016-10-22T01:57:40.120Z,7.2
2016-10-22T01:58:00.757Z,7.3
2016-10-22T01:58:21.340Z,7.2
2016-10-22T01:58:41.945Z,7.2
2016-10-22T01:59:02.518Z,7.3
2016-10-22T01:59:23.116Z,7.3
2016-10-22T01:59:43.699Z,7.2
2016-10-22T02:00:04.257Z,7.2
2016-10-22T02:00:24.820Z,7.2
2016-10-22T02:00:45.389Z,7.3
2016-10-22T02:01:05.954Z,7.2
2016-10-22T02:01:26.533Z,7.3
2016-10-22T02:01:47.115Z,7.2
2016-10-22T02:02:07.681Z,7.2
2016-10-22T02:02:28.261Z,7.2
2016-10-22T02:02:48.883Z,7.2
2016-10-22T02:03:09.454Z,7.2
2016-10-22T02:03:30.024Z,7.2
2016-10-22T02:03:50.589Z,7.2
2016-10-22T02:04:11.175Z,7.2
2016-10-22T02:04:31.783Z,7.2
2016-10-22T02:04:52.391Z,7.2
2016-10-22T02:05:12.960Z,7.2
2016-10-22T02:05:33.535Z,7.2
2016-10-22T02:05:54.130Z,7.2
2016-10-22T02:06:14.696Z,7.2
2016-10-22T02:06:35.280Z,7.2
2016-10-22T02:06:55.843Z,7.2
2016-10-22T02:07:16.427Z,7.1
2016-10-22T02:07:37.008Z,7.2
2016-10-22T02:07:57.584Z,7.2
2016-10-22T02:08:18.183Z,7.2
2016-10-22T02:08:38.767Z,7.2
2016-10-22T02:08:59.320Z,7.1
2016-10-22T02:09:20.007Z,7.1
2016-10-22T02:09:40.599Z,7.1
2016-10-22T02:10:01.173Z,7.2
2016-10-22T02:10:21.743Z,7.2
2016-10-22T02:10:42.315Z,7.2
2016-10-22T02:11:02.872Z,7.2
2016-10-22T02:11:23.451Z,7.1
2016-10-22T02:11:44.058Z,7.1
2016-10-22T02:12:04.672Z,7.2
2016-10-22T02:12:25.231Z,7.1
2016-10-22T02:12:45.800Z,7.2
2016-10-22T02:13:06.375Z,7.2
2016-10-22T02:13:26.948Z,7.2
2016-10-22T02:13:47.536Z,7.2
2016-10-22T02:14:08.136Z,7.1
2016-10-22T02:14:28.697Z,7.2
2016-10-22T02:14:49.300Z,7.2
2016-10-22T02:15:09.874Z,7.2
2016-10-22T02:15:30.444Z,7.2
2016-10-22T02:15:51.005Z,7.1
2016-10-22T02:16:11.612Z,7.1
2016-10-22T02:16:32.226Z,7.2
2016-10-22T02:16:52.850Z,7.1
2016-10-22T02:17:13.415Z,7.2
2016-10-22T02:17:34.335Z,7.2
2016-10-22T02:17:54.914Z,7.1
2016-10-22T02:18:15.472Z,7.2
2016-10-22T02:18:36.031Z,7.2
2016-10-22T02:18:56.612Z,7.2
2016-10-22T02:19:17.177Z,7.2
2016-10-22T02:19:37.749Z,7.2
2016-10-22T02:19:58.318Z,7.1
2016-10-22T02:20:18.932Z,7.2
2016-10-22T02:20:39.542Z,7.3
2016-10-22T02:21:00.146Z,7.2
2016-10-22T02:21:20.733Z,7.2
2016-10-22T02:21:41.367Z,7.2
2016-10-22T02:22:01.925Z,7.3
2016-10-22T02:22:22.501Z,7.3
2016-10-22T02:22:43.078Z,7.3
2016-10-22T02:23:03.643Z,7.2
2016-10-22T02:23:24.241Z,7.2
2016-10-22T02:23:44.806Z,7.1
2016-10-22T02:24:05.389Z,7.2
2016-10-22T02:24:25.947Z,7.2
2016-10-22T02:24:46.525Z,7.1
2016-10-22T02:25:07.100Z,7.2
2016-10-22T02:25:27.677Z,7.2
2016-10-22T02:25:48.256Z,7.2
2016-10-22T02:26:08.829Z,7.2
2016-10-22T02:26:29.397Z,7.2
2016-10-22T02:26:49.973Z,7.3
2016-10-22T02:27:10.550Z,7.2
2016-10-22T02:27:31.148Z,7.2
2016-10-22T02:27:51.710Z,7.2
2016-10-22T02:28:12.305Z,7.1
2016-10-22T02:28:32.873Z,7.2
2016-10-22T02:28:53.456Z,7.2
2016-10-22T02:29:14.023Z,7.2
2016-10-22T02:29:34.636Z,7.1
2016-10-22T02:29:55.216Z,7.2
2016-10-22T02:30:15.830Z,7.1
2016-10-22T02:30:36.415Z,7.1
2016-10-22T02:30:57.023Z,7
2016-10-22T02:31:17.596Z,7.1
2016-10-22T02:31:38.204Z,7.1
2016-10-22T02:31:58.765Z,7
2016-10-22T02:32:19.346Z,7.1
2016-10-22T02:32:39.911Z,7.1
2016-10-22T02:33:00.499Z,7.1
2016-10-22T02:33:21.140Z,7.1
2016-10-22T02:33:41.720Z,7
2016-10-22T02:34:02.281Z,7.1
2016-10-22T02:34:22.863Z,7.1
2016-10-22T02:34:43.462Z,7
2016-10-22T02:35:04.071Z,7.1
2016-10-22T02:35:24.640Z,7.1
2016-10-22T02:35:45.207Z,7.1
2016-10-22T02:36:05.835Z,7
2016-10-22T02:36:26.407Z,7
2016-10-22T02:36:47.015Z,7.1
2016-10-22T02:37:07.585Z,7.1
2016-10-22T02:37:28.169Z,7.1
2016-10-22T02:37:48.759Z,7.1
2016-10-22T02:38:09.348Z,7
2016-10-22T02:38:29.906Z,7.1
2016-10-22T02:38:50.508Z,7
2016-10-22T02:39:11.087Z,7
2016-10-22T02:39:31.670Z,7.1
2016-10-22T02:39:52.257Z,7
2016-10-22T02:40:12.808Z,7.1
2016-10-22T02:40:33.402Z,6.9
2016-10-22T02:40:53.972Z,7
2016-10-22T02:41:14.541Z,7
2016-10-22T02:41:35.124Z,7
2016-10-22T02:41:55.691Z,7
2016-10-22T02:42:16.276Z,7
2016-10-22T02:42:36.844Z,7
2016-10-22T02:42:57.408Z,7
2016-10-22T02:43:17.992Z,6.9
2016-10-22T02:43:38.597Z,7
2016-10-22T02:43:59.206Z,6.9
2016-10-22T02:44:19.778Z,6.9
2016-10-22T02:44:40.345Z,6.9
2016-10-22T02:45:00.919Z,7.1
2016-10-22T02:45:21.502Z,7.1
2016-10-22T02:45:42.060Z,7
2016-10-22T02:46:02.629Z,6.9
2016-10-22T02:46:23.204Z,6.9
2016-10-22T02:46:43.790Z,6.9
2016-10-22T02:47:04.382Z,6.9
2016-10-22T02:47:24.953Z,6.8
2016-10-22T02:47:45.528Z,6.9
2016-10-22T02:48:06.103Z,6.9
2016-10-22T02:48:26.686Z,6.9
2016-10-22T02:48:47.311Z,6.8
2016-10-22T02:49:07.867Z,6.9
2016-10-22T02:49:29.071Z,6.9
2016-10-22T02:49:49.645Z,6.8
2016-10-22T02:50:10.270Z,6.9
2016-10-22T02:50:30.852Z,6.9
2016-10-22T02:50:51.410Z,6.9
2016-10-22T02:51:11.981Z,6.9
2016-10-22T02:51:32.584Z,6.8
2016-10-22T02:51:53.161Z,6.9
2016-10-22T02:52:13.775Z,7
2016-10-22T02:52:34.349Z,6.9
2016-10-22T02:52:54.926Z,6.8
2016-10-22T02:53:15.485Z,6.9
2016-10-22T02:53:36.052Z,6.9
2016-10-22T02:53:56.625Z,6.9
2016-10-22T02:54:17.223Z,6.9
2016-10-22T02:54:37.780Z,6.9
2016-10-22T02:54:58.337Z,6.9
2016-10-22T02:55:18.965Z,6.9
2016-10-22T02:55:39.534Z,6.9
2016-10-22T02:56:00.102Z,6.9
2016-10-22T02:56:20.693Z,6.9
2016-10-22T02:56:41.271Z,6.9
2016-10-22T02:57:01.838Z,6.8
2016-10-22T02:57:22.393Z,6.9
2016-10-22T02:57:42.956Z,7
2016-10-22T02:58:03.520Z,6.9
2016-10-22T02:58:24.085Z,7
2016-10-22T02:58:44.673Z,6.9
2016-10-22T02:59:05.236Z,6.9
2016-10-22T02:59:25.816Z,6.9
2016-10-22T02:59:46.396Z,6.9
2016-10-22T03:00:06.993Z,6.9
2016-10-22T03:00:27.581Z,6.9
2016-10-22T03:00:48.152Z,6.9
2016-10-22T03:01:08.754Z,6.9
2016-10-22T03:01:29.330Z,7
2016-10-22T03:01:49.919Z,6.9
2016-10-22T03:02:10.493Z,6.9
2016-10-22T03:02:31.110Z,6.9
2016-10-22T03:02:51.719Z,7
2016-10-22T03:03:12.295Z,6.9
2016-10-22T03:03:32.885Z,7
2016-10-22T03:03:53.463Z,6.9
2016-10-22T03:04:14.079Z,6.9
2016-10-22T03:04:34.671Z,6.9
2016-10-22T03:04:55.237Z,7
2016-10-22T03:05:15.795Z,7
2016-10-22T03:05:36.425Z,7
2016-10-22T03:05:56.978Z,7
2016-10-22T03:06:17.566Z,7
2016-10-22T03:06:38.144Z,6.9
2016-10-22T03:06:58.716Z,6.8
2016-10-22T03:07:19.275Z,6.9
2016-10-22T03:07:39.858Z,6.9
2016-10-22T03:08:00.473Z,6.9
2016-10-22T03:08:21.176Z,6.9
2016-10-22T03:08:41.735Z,6.9
2016-10-22T03:09:02.316Z,6.9
2016-10-22T03:09:22.891Z,6.8
2016-10-22T03:09:43.467Z,6.9
2016-10-22T03:10:04.032Z,6.9
2016-10-22T03:10:24.644Z,6.9
2016-10-22T03:10:45.194Z,6.9
2016-10-22T03:11:05.777Z,6.9
2016-10-22T03:11:26.347Z,6.9
2016-10-22T03:11:46.918Z,6.9
2016-10-22T03:12:07.489Z,6.9
2016-10-22T03:12:28.073Z,6.9
2016-10-22T03:12:48.680Z,6.9
2016-10-22T03:13:09.253Z,6.9
2016-10-22T03:13:29.814Z,6.9
2016-10-22T03:13:50.415Z,7
2016-10-22T03:14:10.973Z,6.9
2016-10-22T03:14:31.530Z,6.9
2016-10-22T03:14:52.149Z,6.9
2016-10-22T03:15:12.719Z,6.9
2016-10-22T03:15:33.321Z,6.9
2016-10-22T03:15:53.923Z,6.9
2016-10-22T03:16:14.514Z,6.9
2016-10-22T03:16:35.071Z,7
2016-10-22T03:16:55.678Z,6.9
2016-10-22T03:17:16.239Z,6.9
2016-10-22T03:17:36.809Z,6.9
2016-10-22T03:17:57.366Z,6.9
2016-10-22T03:18:17.950Z,6.9
2016-10-22T03:18:38.525Z,6.9
2016-10-22T03:18:59.090Z,6.8
2016-10-22T03:19:19.657Z,6.8
2016-10-22T03:19:40.286Z,6.8
2016-10-22T03:20:00.875Z,6.8
2016-10-22T03:20:21.448Z,6.9
2016-10-22T03:20:42.061Z,6.8
2016-10-22T03:21:02.623Z,6.9
2016-10-22T03:21:23.222Z,6.8
2016-10-22T03:21:43.808Z,6.8
2016-10-22T03:22:04.368Z,6.7
2016-10-22T03:22:24.978Z,6.7
2016-10-22T03:22:45.536Z,6.7
2016-10-22T03:23:06.101Z,6.8
2016-10-22T03:23:26.706Z,6.7
2016-10-22T03:23:47.258Z,6.7
2016-10-22T03:24:07.813Z,6.7
2016-10-22T03:24:28.428Z,6.7
2016-10-22T03:24:49.052Z,6.7
2016-10-22T03:25:09.640Z,6.7
2016-10-22T03:25:30.235Z,6.7
2016-10-22T03:25:50.796Z,6.7
2016-10-22T03:26:11.373Z,6.7
2016-10-22T03:26:32.016Z,6.7
2016-10-22T03:26:52.585Z,6.7
2016-10-22T03:27:13.159Z,6.7
2016-10-22T03:27:33.736Z,6.7
2016-10-22T03:27:54.385Z,6.6
2016-10-22T03:28:14.950Z,6.7
2016-10-22T03:28:35.523Z,6.7
2016-10-22T03:28:56.084Z,6.6
2016-10-22T03:29:16.667Z,6.7
2016-10-22T03:29:37.244Z,6.5
2016-10-22T03:29:57.860Z,6.6
2016-10-22T03:30:18.429Z,6.6
2016-10-22T03:30:39.049Z,6.6
2016-10-22T03:30:59.622Z,6.6
2016-10-22T03:31:20.205Z,6.5
2016-10-22T03:31:40.808Z,6.6
2016-10-22T03:32:01.379Z,6.5
2016-10-22T03:32:21.960Z,6.6
2016-10-22T03:32:42.575Z,6.6
2016-10-22T03:33:03.140Z,6.5
2016-10-22T03:33:23.711Z,6.6
2016-10-22T03:33:44.283Z,6.6
2016-10-22T03:34:04.856Z,6.5
2016-10-22T03:34:25.477Z,6.5
2016-10-22T03:34:46.043Z,6.5
2016-10-22T03:35:06.603Z,6.5
2016-10-22T03:35:27.216Z,6.5
2016-10-22T03:35:47.825Z,6.5
2016-10-22T03:36:08.408Z,6.5
2016-10-22T03:36:28.973Z,6.5
2016-10-22T03:36:49.546Z,6.5
2016-10-22T03:37:10.150Z,6.5
2016-10-22T03:37:30.729Z,6.5
2016-10-22T03:37:51.324Z,6.6
2016-10-22T03:38:11.891Z,6.5
2016-10-22T03:38:32.486Z,6.5
2016-10-22T03:38:53.094Z,6.5
2016-10-22T03:39:13.665Z,6.5
2016-10-22T03:39:34.235Z,6.5
2016-10-22T03:39:54.815Z,6.5
2016-10-22T03:40:15.384Z,6.5
2016-10-22T03:40:35.952Z,6.5
2016-10-22T03:40:56.556Z,6.5
2016-10-22T03:41:17.140Z,6.5
2016-10-22T03:41:37.724Z,6.4
2016-10-22T03:41:58.312Z,6.5
2016-10-22T03:42:18.882Z,6.4
2016-10-22T03:42:39.459Z,6.5
2016-10-22T03:43:00.028Z,6.4
2016-10-22T03:43:20.604Z,6.4
2016-10-22T03:43:41.165Z,6.5
2016-10-22T03:44:01.752Z,6.5
2016-10-22T03:44:22.334Z,6.4
2016-10-22T03:44:42.913Z,6.5
2016-10-22T03:45:03.493Z,6.4
2016-10-22T03:45:24.110Z,6.4
2016-10-22T03:45:44.686Z,6.4
2016-10-22T03:46:05.259Z,6.4
2016-10-22T03:46:25.866Z,6.4
2016-10-22T03:46:46.438Z,6.4
2016-10-22T03:47:07.027Z,6.4
2016-10-22T03:47:27.582Z,6.3
2016-10-22T03:47:48.152Z,6.4
2016-10-22T03:48:08.717Z,6.4
2016-10-22T03:48:29.291Z,6.3
2016-10-22T03:48:49.907Z,6.3
2016-10-22T03:49:10.513Z,6.4
2016-10-22T03:49:31.070Z,6.4
2016-10-22T03:49:51.646Z,6.3
2016-10-22T03:50:12.231Z,6.3
2016-10-22T03:50:32.800Z,6.3
2016-10-22T03:50:53.372Z,6.3
2016-10-22T03:51:13.961Z,6.4
2016-10-22T03:51:34.551Z,6.3
2016-10-22T03:51:55.151Z,6.3
2016-10-22T03:52:15.739Z,6.3
2016-10-22T03:52:36.311Z,6.4
2016-10-22T03:52:56.870Z,6.4
2016-10-22T03:53:17.460Z,6.3
2016-10-22T03:53:38.052Z,6.3
2016-10-22T03:53:58.617Z,6.3
2016-10-22T03:54:19.206Z,6.4
2016-10-22T03:54:39.843Z,6.3
2016-10-22T03:55:00.428Z,6.4
2016-10-22T03:55:21.032Z,6.4
2016-10-22T03:55:41.604Z,6.3
2016-10-22T03:56:02.256Z,6.4
2016-10-22T03:56:22.819Z,6.3
2016-10-22T03:56:43.383Z,6.3
2016-10-22T03:57:03.960Z,6.4
2016-10-22T03:57:24.531Z,6.4
2016-10-22T03:57:45.099Z,6.4
2016-10-22T03:58:05.700Z,6.4
2016-10-22T03:58:26.283Z,6.3
2016-10-22T03:58:46.847Z,6.3
2016-10-22T03:59:07.442Z,6.3
2016-10-22T03:59:28.021Z,6.3
2016-10-22T03:59:48.586Z,6.3
2016-10-22T04:00:09.156Z,6.3
2016-10-22T04:00:29.718Z,6.4
2016-10-22T04:00:50.293Z,6.4
2016-10-22T04:01:10.911Z,6.4
2016-10-22T04:01:31.465Z,6.5
2016-10-22T04:01:52.046Z,6.5
2016-10-22T04:02:12.614Z,6.4
2016-10-22T04:02:33.206Z,6.4
2016-10-22T04:02:53.773Z,6.4
2016-10-22T04:03:14.394Z,6.5
2016-10-22T04:03:34.985Z,6.4
2016-10-22T04:03:55.571Z,6.4
2016-10-22T04:04:16.179Z,6.4
2016-10-22T04:04:36.751Z,6.5
2016-10-22T04:04:57.357Z,6.4
2016-10-22T04:05:17.956Z,6.5
2016-10-22T04:05:38.532Z,6.5
2016-10-22T04:05:59.114Z,6.5
2016-10-22T04:06:19.684Z,6.5
2016-10-22T04:06:40.265Z,6.5
2016-10-22T04:07:00.847Z,6.5
2016-10-22T04:07:21.425Z,6.5
2016-10-22T04:07:42.009Z,6.6
2016-10-22T04:08:02.586Z,6.6
2016-10-22T04:08:23.147Z,6.6
2016-10-22T04:08:43.716Z,6.5
2016-10-22T04:09:04.289Z,6.5
2016-10-22T04:09:24.856Z,6.5
2016-10-22T04:09:45.422Z,6.5
2016-10-22T04:10:05.992Z,6.5
2016-10-22T04:10:26.560Z,6.6
2016-10-22T04:10:47.177Z,6.6
2016-10-22T04:11:07.802Z,6.6
2016-10-22T04:11:28.407Z,6.7
2016-10-22T04:11:48.984Z,6.7
2016-10-22T04:12:09.593Z,6.7
2016-10-22T04:12:30.148Z,6.7
2016-10-22T04:12:50.718Z,6.6
2016-10-22T04:13:11.290Z,6.7
2016-10-22T04:13:31.863Z,6.6
2016-10-22T04:13:52.433Z,6.6
2016-10-22T04:14:12.998Z,6.7
2016-10-22T04:14:33.583Z,6.7
2016-10-22T04:14:54.162Z,6.6
2016-10-22T04:15:14.743Z,6.7
2016-10-22T04:15:35.356Z,6.7
2016-10-22T04:15:55.929Z,6.7
2016-10-22T04:16:16.499Z,6.7
2016-10-22T04:16:37.115Z,6.7
2016-10-22T04:16:57.780Z,6.7
2016-10-22T04:17:18.352Z,6.6
2016-10-22T04:17:38.953Z,6.6
2016-10-22T04:17:59.515Z,6.7
2016-10-22T04:18:20.092Z,6.6
2016-10-22T04:18:40.663Z,6.7
2016-10-22T04:19:01.235Z,6.6
2016-10-22T04:19:21.829Z,6.6
2016-10-22T04:19:42.471Z,6.6
2016-10-22T04:20:03.041Z,6.6
2016-10-22T04:20:23.612Z,6.6
2016-10-22T04:20:44.187Z,6.7
2016-10-22T04:21:04.761Z,6.7
2016-10-22T04:21:25.328Z,6.7
2016-10-22T04:21:45.889Z,6.7
2016-10-22T04:22:06.480Z,6.6
2016-10-22T04:22:27.093Z,6.7
2016-10-22T04:22:47.669Z,6.7
2016-10-22T04:23:08.253Z,6.7
2016-10-22T04:23:28.819Z,6.7
2016-10-22T04:23:49.403Z,6.6
2016-10-22T04:24:10.018Z,6.7
2016-10-22T04:24:30.605Z,6.6
2016-10-22T04:24:51.190Z,6.6
2016-10-22T04:25:11.785Z,6.5
2016-10-22T04:25:32.347Z,6.5
2016-10-22T04:25:52.924Z,6.5
2016-10-22T04:26:13.519Z,6.6
2016-10-22T04:26:34.093Z,6.6
2016-10-22T04:26:54.658Z,6.5
2016-10-22T04:27:15.224Z,6.5
2016-10-22T04:27:35.823Z,6.6
2016-10-22T04:27:56.390Z,6.6
2016-10-22T04:28:16.962Z,6.5
2016-10-22T04:28:37.579Z,6.6
2016-10-22T04:28:58.151Z,6.6
2016-10-22T04:29:18.735Z,6.5
2016-10-22T04:29:39.368Z,6.6
2016-10-22T04:29:59.943Z,6.5
2016-10-22T04:30:20.532Z,6.5
2016-10-22T04:30:41.148Z,6.4
2016-10-22T04:31:01.724Z,6.5
2016-10-22T04:31:22.320Z,6.5
2016-10-22T04:31:42.901Z,6.4
2016-10-22T04:32:03.471Z,6.4
2016-10-22T04:32:24.054Z,6.4
2016-10-22T04:32:44.637Z,6.4
2016-10-22T04:33:05.233Z,6.5
2016-10-22T04:33:25.813Z,6.4
2016-10-22T04:33:46.426Z,6.4
2016-10-22T04:34:06.989Z,6.4
2016-10-22T04:34:27.602Z,6.4
2016-10-22T04:34:48.196Z,6.4
2016-10-22T04:35:08.795Z,6.3
2016-10-22T04:35:29.408Z,6.4
2016-10-22T04:35:49.961Z,6.3
2016-10-22T04:36:10.549Z,6.3
2016-10-22T04:36:31.124Z,6.3
2016-10-22T04:36:51.708Z,6.4
2016-10-22T04:37:12.272Z,6.3
2016-10-22T04:37:32.886Z,6.3
2016-10-22T04:37:53.493Z,6.2
2016-10-22T04:38:14.063Z,6.3
2016-10-22T04:38:34.644Z,6.2
2016-10-22T04:38:55.224Z,6.2
2016-10-22T04:39:15.824Z,6.3
2016-10-22T04:39:36.411Z,6.2
2016-10-22T04:39:57.038Z,6.3
2016-10-22T04:40:17.601Z,6.2
2016-10-22T04:40:38.171Z,6.3
2016-10-22T04:40:58.732Z,6.3
2016-10-22T04:41:19.314Z,6.2
2016-10-22T04:41:39.890Z,6.2
2016-10-22T04:42:00.464Z,6.2
2016-10-22T04:42:21.068Z,6.3
2016-10-22T04:42:41.648Z,6.3
2016-10-22T04:43:02.227Z,6.2
2016-10-22T04:43:22.860Z,6.2
2016-10-22T04:43:43.437Z,6.2
2016-10-22T04:44:04.005Z,6.2